createdAt,value
2023-03-20T00:01:30.222Z,8.36
2023-03-20T00:03:58.398Z,8.34
2023-03-20T00:06:32.349Z,8.34
2023-03-20T00:09:07.213Z,8.35
2023-03-20T00:11:48.349Z,8.37
2023-03-20T00:14:19.344Z,8.35
2023-03-20T00:16:48.814Z,8.34
2023-03-20T00:19:26.072Z,8.32
2023-03-20T00:21:56.792Z,8.30
2023-03-20T00:24:25.831Z,8.28
2023-03-20T00:26:54.421Z,8.29
2023-03-20T00:29:31.489Z,8.29
2023-03-20T00:31:59.629Z,8.26
2023-03-20T00:34:29.779Z,8.26
2023-03-20T00:36:58.339Z,8.26
2023-03-20T00:39:26.534Z,8.24
2023-03-20T00:41:59.144Z,8.26
2023-03-20T00:44:41.965Z,8.26
2023-03-20T00:47:19.816Z,8.24
2023-03-20T00:49:50.841Z,8.24
2023-03-20T00:52:20.325Z,8.22
2023-03-20T00:54:48.628Z,8.19
2023-03-20T00:57:22.748Z,8.17
2023-03-20T01:00:07.995Z,8.20
2023-03-20T01:02:35.984Z,8.18
2023-03-20T01:05:05.724Z,8.15
2023-03-20T01:07:34.021Z,8.11
2023-03-20T01:10:05.182Z,8.10
2023-03-20T01:12:33.332Z,8.09
2023-03-20T01:15:01.896Z,8.08
2023-03-20T01:17:30.529Z,8.07
2023-03-20T01:19:58.809Z,8.05
2023-03-20T01:22:27.132Z,8.06
2023-03-20T01:24:55.419Z,8.06
2023-03-20T01:27:23.786Z,8.06
2023-03-20T01:29:51.682Z,8.06
2023-03-20T01:32:19.887Z,8.03
2023-03-20T01:34:50.011Z,8.06
2023-03-20T01:37:26.774Z,8.06
2023-03-20T01:39:56.780Z,8.05
2023-03-20T01:42:25.142Z,8.01
2023-03-20T01:44:53.693Z,8.01
2023-03-20T01:47:24.616Z,8.02
2023-03-20T01:50:26.415Z,8.04
2023-03-20T01:53:08.128Z,8.02
2023-03-20T01:55:42.021Z,8.05
2023-03-20T01:58:19.682Z,8.08
2023-03-20T02:00:50.816Z,8.08
2023-03-20T02:03:21.828Z,8.09
2023-03-20T02:06:21.220Z,8.09
2023-03-20T02:09:10.682Z,8.11
2023-03-20T02:11:43.796Z,8.15
2023-03-20T02:14:13.504Z,8.14
2023-03-20T02:17:05.636Z,8.14
2023-03-20T02:20:12.054Z,8.17
2023-03-20T02:22:48.864Z,8.18
2023-03-20T02:25:37.043Z,8.15
2023-03-20T02:28:33.638Z,8.18
2023-03-20T02:31:49.957Z,8.17
2023-03-20T02:34:20.673Z,8.12
2023-03-20T02:37:00.512Z,8.11
2023-03-20T02:39:39.852Z,8.13
2023-03-20T02:42:26.047Z,8.11
2023-03-20T02:45:20.818Z,8.09
2023-03-20T02:48:17.085Z,8.06
2023-03-20T02:51:01.162Z,8.06
2023-03-20T02:53:33.115Z,8.05
2023-03-20T02:56:12.721Z,8.08
2023-03-20T02:59:18.427Z,8.08
2023-03-20T03:02:09.203Z,8.04
2023-03-20T03:04:42.594Z,8.03
2023-03-20T03:07:14.273Z,8.06
2023-03-20T03:09:49.293Z,8.08
2023-03-20T03:12:23.971Z,8.06
2023-03-20T03:15:00.843Z,8.06
2023-03-20T03:17:34.409Z,8.06
2023-03-20T03:20:14.785Z,8.11
2023-03-20T03:22:43.292Z,8.14
2023-03-20T03:25:13.944Z,8.14
2023-03-20T03:27:46.035Z,8.17
2023-03-20T03:30:32.058Z,8.19
2023-03-20T03:33:15.566Z,8.18
2023-03-20T03:35:44.166Z,8.17
2023-03-20T03:38:26.636Z,8.22
2023-03-20T03:41:13.787Z,8.23
2023-03-20T03:43:45.356Z,8.25
2023-03-20T03:46:36.333Z,8.25
2023-03-20T03:49:06.865Z,8.26
2023-03-20T03:51:40.090Z,8.25
2023-03-20T03:54:21.138Z,8.26
2023-03-20T03:57:06.094Z,8.27
2023-03-20T03:59:38.906Z,8.28
2023-03-20T04:02:09.280Z,8.26
2023-03-20T04:04:43.039Z,8.23
2023-03-20T04:07:11.466Z,8.21
2023-03-20T04:09:39.491Z,8.20
2023-03-20T04:12:32.145Z,8.19
2023-03-20T04:15:02.492Z,8.18
2023-03-20T04:17:31.890Z,8.17
2023-03-20T04:19:59.910Z,8.13
2023-03-20T04:22:28.077Z,8.07
2023-03-20T04:24:58.440Z,8.03
2023-03-20T04:27:29.023Z,8.01
2023-03-20T04:29:58.151Z,7.98
2023-03-20T04:32:48.635Z,7.96
2023-03-20T04:35:33.762Z,7.94
2023-03-20T04:38:07.307Z,7.94
2023-03-20T04:40:36.407Z,7.94
2023-03-20T04:43:04.933Z,7.94
2023-03-20T04:45:33.148Z,7.93
2023-03-20T04:48:02.058Z,7.94
2023-03-20T04:50:32.345Z,7.95
2023-03-20T04:53:00.497Z,7.95
2023-03-20T04:55:28.691Z,7.94
2023-03-20T04:57:56.789Z,7.94
2023-03-20T05:00:27.113Z,7.92
2023-03-20T05:02:55.247Z,7.93
2023-03-20T05:05:23.847Z,7.96
2023-03-20T05:07:52.529Z,7.96
2023-03-20T05:10:32.780Z,7.98
2023-03-20T05:13:11.978Z,8.01
2023-03-20T05:16:02.143Z,8.05
2023-03-20T05:18:44.383Z,8.08
2023-03-20T05:21:38.632Z,8.11
2023-03-20T05:24:25.879Z,8.17
2023-03-20T05:27:31.881Z,8.22
2023-03-20T05:30:22.898Z,8.28
2023-03-20T05:32:57.058Z,8.32
2023-03-20T05:35:28.136Z,8.35
2023-03-20T05:38:05.310Z,8.35
2023-03-20T05:40:57.665Z,8.38
2023-03-20T05:43:35.485Z,8.39
2023-03-20T05:46:19.574Z,8.41
2023-03-20T05:49:09.558Z,8.44
2023-03-20T05:51:57.724Z,8.45
2023-03-20T05:54:44.486Z,8.48
2023-03-20T05:57:31.696Z,8.52
2023-03-20T06:00:11.715Z,8.58
2023-03-20T06:02:52.811Z,8.63
2023-03-20T06:05:36.746Z,8.68
2023-03-20T06:08:05.728Z,8.72
2023-03-20T06:10:34.265Z,8.77
2023-03-20T06:13:02.278Z,8.85
2023-03-20T06:15:30.732Z,8.91
2023-03-20T06:18:05.704Z,8.99
2023-03-20T06:20:33.912Z,9.08
2023-03-20T06:23:04.122Z,9.18
2023-03-20T06:25:32.553Z,9.27
2023-03-20T06:28:00.873Z,9.38
2023-03-20T06:30:29.002Z,9.45
2023-03-20T06:32:57.930Z,9.52
2023-03-20T06:35:32.086Z,9.57
2023-03-20T06:38:00.356Z,9.66
2023-03-20T06:40:28.471Z,9.73
2023-03-20T06:42:56.844Z,9.81
2023-03-20T06:45:26.654Z,9.86
2023-03-20T06:48:01.123Z,9.95
2023-03-20T06:50:29.563Z,10.02
2023-03-20T06:52:58.030Z,10.09
2023-03-20T06:55:35.316Z,10.17
2023-03-20T06:58:04.185Z,10.24
2023-03-20T07:00:33.226Z,10.31
2023-03-20T07:03:04.607Z,10.40
2023-03-20T07:05:32.829Z,10.49
2023-03-20T07:08:02.026Z,10.56
2023-03-20T07:10:30.109Z,10.65
2023-03-20T07:12:58.019Z,10.74
2023-03-20T07:15:26.818Z,10.84
2023-03-20T07:17:54.886Z,10.93
2023-03-20T07:20:23.383Z,11.02
2023-03-20T07:22:51.333Z,11.11
2023-03-20T07:25:35.469Z,11.21
2023-03-20T07:28:09.913Z,11.32
2023-03-20T07:30:39.190Z,11.43
2023-03-20T07:33:08.021Z,11.54
2023-03-20T07:35:36.809Z,11.65
2023-03-20T07:38:07.096Z,11.75
2023-03-20T07:40:43.798Z,11.84
2023-03-20T07:43:17.448Z,11.92
2023-03-20T07:46:08.363Z,12.00
2023-03-20T07:48:37.607Z,12.08
2023-03-20T07:51:06.042Z,12.17
2023-03-20T07:53:34.032Z,12.25
2023-03-20T07:56:01.989Z,12.32
2023-03-20T07:58:32.971Z,12.40
2023-03-20T08:01:03.730Z,12.48
2023-03-20T08:03:32.081Z,12.57
2023-03-20T08:06:01.821Z,12.65
2023-03-20T08:08:30.016Z,12.77
2023-03-20T08:10:57.920Z,12.92
2023-03-20T08:13:25.844Z,13.08
2023-03-20T08:15:53.845Z,13.22
2023-03-20T08:18:22.574Z,13.35
2023-03-20T08:20:50.792Z,13.46
2023-03-20T08:23:20.800Z,13.58
2023-03-20T08:25:50.116Z,13.67
2023-03-20T08:28:18.438Z,13.74
2023-03-20T08:30:47.384Z,13.81
2023-03-20T08:33:17.028Z,13.88
2023-03-20T08:35:56.098Z,13.94
2023-03-20T08:38:24.747Z,14.00
2023-03-20T08:40:54.782Z,14.06
2023-03-20T08:43:22.826Z,14.12
2023-03-20T08:45:50.845Z,14.17
2023-03-20T08:48:18.972Z,14.22
2023-03-20T08:50:47.004Z,14.27
2023-03-20T08:53:15.045Z,14.33
2023-03-20T08:55:50.301Z,14.38
2023-03-20T08:58:19.155Z,14.42
2023-03-20T09:00:47.617Z,14.46
2023-03-20T09:03:18.422Z,14.54
2023-03-20T09:05:47.027Z,14.59
2023-03-20T09:08:15.879Z,14.63
2023-03-20T09:10:46.782Z,14.70
2023-03-20T09:13:26.751Z,14.76
2023-03-20T09:15:56.861Z,14.82
2023-03-20T09:18:26.473Z,14.85
2023-03-20T09:20:56.597Z,14.88
2023-03-20T09:23:24.624Z,14.89
2023-03-20T09:25:52.564Z,14.87
2023-03-20T09:28:20.496Z,14.84
2023-03-20T09:30:48.552Z,14.83
2023-03-20T09:33:16.678Z,14.84
2023-03-20T09:35:44.619Z,14.84
2023-03-20T09:38:13.698Z,14.88
2023-03-20T09:40:59.995Z,14.93
2023-03-20T09:43:52.524Z,14.96
2023-03-20T09:46:32.369Z,14.98
2023-03-20T09:49:19.061Z,15.03
2023-03-20T09:51:59.764Z,15.10
2023-03-20T09:54:53.239Z,15.13
2023-03-20T09:57:26.247Z,15.13
2023-03-20T10:00:07.595Z,15.15
2023-03-20T10:02:50.524Z,15.18
2023-03-20T10:05:31.958Z,15.21
2023-03-20T10:08:03.442Z,15.25
2023-03-20T10:10:55.508Z,15.29
2023-03-20T10:13:52.393Z,15.31
2023-03-20T10:16:45.194Z,15.30
2023-03-20T10:19:30.831Z,15.34
2023-03-20T10:22:25.937Z,15.36
2023-03-20T10:25:08.949Z,15.38
2023-03-20T10:27:46.725Z,15.41
2023-03-20T10:30:31.274Z,15.40
2023-03-20T10:33:18.923Z,15.42
2023-03-20T10:35:59.454Z,15.47
2023-03-20T10:38:56.446Z,15.45
2023-03-20T10:41:30.982Z,15.42
2023-03-20T10:44:01.213Z,15.39
2023-03-20T10:46:37.558Z,15.37
2023-03-20T10:49:16.639Z,15.40
2023-03-20T10:51:56.653Z,15.42
2023-03-20T10:54:29.763Z,15.44
2023-03-20T10:57:00.775Z,15.46
2023-03-20T10:59:44.343Z,15.50
2023-03-20T11:02:17.114Z,15.58
2023-03-20T11:04:45.644Z,15.64
2023-03-20T11:07:19.529Z,15.68
2023-03-20T11:10:07.388Z,15.71
2023-03-20T11:12:44.586Z,15.74
2023-03-20T11:15:32.342Z,15.76
2023-03-20T11:18:08.541Z,15.82
2023-03-20T11:20:50.630Z,15.89
2023-03-20T11:23:24.969Z,15.94
2023-03-20T11:25:58.408Z,16.02
2023-03-20T11:28:34.324Z,16.10
2023-03-20T11:31:05.929Z,16.14
2023-03-20T11:33:59.810Z,16.20
2023-03-20T11:36:30.191Z,16.24
2023-03-20T11:39:21.838Z,16.29
2023-03-20T11:41:53.237Z,16.35
2023-03-20T11:44:22.793Z,16.40
2023-03-20T11:47:18.672Z,16.42
2023-03-20T11:49:58.828Z,16.40
2023-03-20T11:52:33.912Z,16.35
2023-03-20T11:55:06.749Z,16.32
2023-03-20T11:57:42.839Z,16.35
2023-03-20T12:00:19.593Z,16.40
2023-03-20T12:02:47.777Z,16.44
2023-03-20T12:05:33.096Z,16.48
2023-03-20T12:08:07.066Z,16.47
2023-03-20T12:10:41.333Z,16.49
2023-03-20T12:13:26.278Z,16.53
2023-03-20T12:16:06.414Z,16.54
2023-03-20T12:18:45.566Z,16.53
2023-03-20T12:21:41.190Z,16.56
2023-03-20T12:24:31.493Z,16.55
2023-03-20T12:27:28.192Z,16.54
2023-03-20T12:30:14.312Z,16.55
2023-03-20T12:33:04.715Z,16.55
2023-03-20T12:35:38.063Z,16.55
2023-03-20T12:38:33.174Z,16.57
2023-03-20T12:41:16.122Z,16.58
2023-03-20T12:44:02.625Z,16.63
2023-03-20T12:46:39.324Z,16.62
2023-03-20T12:49:24.902Z,16.63
2023-03-20T12:52:08.363Z,16.67
2023-03-20T12:54:36.478Z,16.70
2023-03-20T12:57:16.849Z,16.73
2023-03-20T12:59:59.705Z,16.75
2023-03-20T13:02:54.025Z,16.72
2023-03-20T13:06:13.366Z,16.73
2023-03-20T13:09:02.881Z,16.79
2023-03-20T13:11:42.692Z,16.86
2023-03-20T13:14:21.109Z,16.89
2023-03-20T13:17:02.171Z,16.93
2023-03-20T13:19:41.043Z,17.01
2023-03-20T13:22:13.905Z,17.08
2023-03-20T13:24:50.908Z,17.11
2023-03-20T13:27:45.030Z,17.16
2023-03-20T13:30:18.109Z,17.16
2023-03-20T13:33:10.667Z,17.11
2023-03-20T13:35:52.340Z,17.04
2023-03-20T13:38:24.470Z,17.00
2023-03-20T13:41:02.558Z,16.90
2023-03-20T13:43:40.302Z,16.89
2023-03-20T13:46:11.330Z,16.89
2023-03-20T13:48:41.246Z,16.91
2023-03-20T13:51:34.352Z,16.95
2023-03-20T13:54:14.386Z,16.92
2023-03-20T13:56:59.550Z,16.93
2023-03-20T13:59:51.909Z,16.94
2023-03-20T14:02:38.594Z,16.96
2023-03-20T14:05:18.579Z,16.97
2023-03-20T14:07:48.822Z,16.98
2023-03-20T14:10:34.972Z,17.01
2023-03-20T14:13:12.805Z,17.05
2023-03-20T14:15:53.934Z,17.03
2023-03-20T14:18:24.508Z,17.00
2023-03-20T14:20:57.331Z,16.98
2023-03-20T14:23:41.770Z,16.97
2023-03-20T14:26:24.160Z,16.96
2023-03-20T14:28:59.123Z,16.93
2023-03-20T14:31:38.295Z,16.92
2023-03-20T14:34:06.322Z,16.90
2023-03-20T14:37:00.762Z,16.90
2023-03-20T14:39:40.780Z,16.90
2023-03-20T14:42:27.118Z,16.89
2023-03-20T14:45:13.523Z,16.89
2023-03-20T14:47:55.013Z,16.89
2023-03-20T14:50:32.512Z,16.92
2023-03-20T14:53:24.222Z,16.95
2023-03-20T14:55:57.654Z,16.95
2023-03-20T14:58:41.102Z,16.97
2023-03-20T15:01:24.739Z,16.95
2023-03-20T15:04:17.344Z,16.94
2023-03-20T15:06:51.927Z,16.92
2023-03-20T15:09:22.750Z,16.90
2023-03-20T15:11:52.790Z,16.89
2023-03-20T15:14:26.414Z,16.86
2023-03-20T15:17:03.120Z,16.83
2023-03-20T15:19:33.709Z,16.81
2023-03-20T15:22:01.876Z,16.79
2023-03-20T15:24:30.228Z,16.77
2023-03-20T15:27:01.369Z,16.75
2023-03-20T15:29:32.649Z,16.71
2023-03-20T15:32:13.897Z,16.67
2023-03-20T15:34:44.281Z,16.64
2023-03-20T15:37:17.258Z,16.63
2023-03-20T15:39:51.995Z,16.58
2023-03-20T15:42:23.440Z,16.55
2023-03-20T15:44:54.586Z,16.53
2023-03-20T15:47:24.511Z,16.48
2023-03-20T15:49:57.996Z,16.45
2023-03-20T15:52:39.717Z,16.41
2023-03-20T15:55:14.636Z,16.37
2023-03-20T15:57:47.483Z,16.32
2023-03-20T16:00:32.731Z,16.27
2023-03-20T16:03:07.828Z,16.22
2023-03-20T16:05:36.268Z,16.18
2023-03-20T16:08:31.737Z,16.13
2023-03-20T16:11:05.248Z,16.09
2023-03-20T16:13:39.818Z,16.04
2023-03-20T16:16:13.154Z,15.99
2023-03-20T16:18:42.184Z,15.95
2023-03-20T16:21:41.058Z,15.91
2023-03-20T16:24:16.009Z,15.87
2023-03-20T16:26:48.471Z,15.82
2023-03-20T16:29:18.160Z,15.79
2023-03-20T16:31:55.538Z,15.74
2023-03-20T16:34:32.594Z,15.68
2023-03-20T16:37:07.753Z,15.63
2023-03-20T16:39:35.686Z,15.58
2023-03-20T16:42:22.659Z,15.52
2023-03-20T16:44:58.641Z,15.45
2023-03-20T16:47:38.539Z,15.41
2023-03-20T16:50:33.934Z,15.36
2023-03-20T16:53:02.256Z,15.31
2023-03-20T16:55:35.443Z,15.26
2023-03-20T16:58:06.579Z,15.22
2023-03-20T17:00:43.624Z,15.20
2023-03-20T17:03:24.739Z,15.17
2023-03-20T17:06:06.736Z,15.14
2023-03-20T17:08:40.761Z,15.10
2023-03-20T17:11:33.342Z,15.09
2023-03-20T17:14:03.577Z,15.08
2023-03-20T17:16:33.349Z,15.05
2023-03-20T17:19:14.114Z,15.05
2023-03-20T17:21:42.457Z,15.02
2023-03-20T17:24:11.425Z,14.99
2023-03-20T17:26:42.063Z,14.96
2023-03-20T17:29:13.767Z,14.94
2023-03-20T17:31:41.878Z,14.91
2023-03-20T17:34:14.908Z,14.88
2023-03-20T17:36:43.082Z,14.87
2023-03-20T17:39:19.269Z,14.84
2023-03-20T17:41:47.646Z,14.82
2023-03-20T17:44:15.573Z,14.79
2023-03-20T17:46:57.425Z,14.77
2023-03-20T17:49:27.738Z,14.73
2023-03-20T17:51:56.539Z,14.71
2023-03-20T17:54:24.910Z,14.69
2023-03-20T17:56:52.930Z,14.66
2023-03-20T17:59:20.982Z,14.63
2023-03-20T18:01:49.043Z,14.60
2023-03-20T18:04:17.150Z,14.58
2023-03-20T18:06:47.092Z,14.54
2023-03-20T18:09:16.199Z,14.52
2023-03-20T18:11:44.092Z,14.48
2023-03-20T18:14:12.480Z,14.46
2023-03-20T18:16:40.477Z,14.44
2023-03-20T18:19:28.470Z,14.42
2023-03-20T18:21:57.957Z,14.41
2023-03-20T18:24:27.050Z,14.39
2023-03-20T18:26:55.902Z,14.37
2023-03-20T18:29:23.801Z,14.35
2023-03-20T18:31:52.275Z,14.33
2023-03-20T18:34:21.346Z,14.29
2023-03-20T18:36:49.757Z,14.27
2023-03-20T18:39:23.838Z,14.23
2023-03-20T18:41:52.441Z,14.19
2023-03-20T18:44:20.453Z,14.15
2023-03-20T18:46:48.549Z,14.12
2023-03-20T18:49:18.367Z,14.10
2023-03-20T18:51:46.637Z,14.07
2023-03-20T18:54:14.552Z,14.05
2023-03-20T18:56:43.364Z,14.03
2023-03-20T18:59:13.159Z,14.01
2023-03-20T19:01:41.186Z,13.99
2023-03-20T19:04:09.716Z,13.97
2023-03-20T19:06:37.757Z,13.94
2023-03-20T19:09:05.751Z,13.89
2023-03-20T19:11:34.971Z,13.85
2023-03-20T19:14:03.035Z,13.80
2023-03-20T19:16:35.274Z,13.76
2023-03-20T19:19:05.887Z,13.68
2023-03-20T19:21:35.260Z,13.64
2023-03-20T19:24:05.514Z,13.59
2023-03-20T19:26:36.235Z,13.56
2023-03-20T19:29:09.590Z,13.52
2023-03-20T19:31:37.916Z,13.48
2023-03-20T19:34:06.841Z,13.40
2023-03-20T19:36:37.786Z,13.32
2023-03-20T19:39:07.767Z,13.23
2023-03-20T19:41:35.957Z,13.17
2023-03-20T19:44:07.256Z,13.13
2023-03-20T19:46:40.999Z,13.09
2023-03-20T19:49:20.747Z,13.04
2023-03-20T19:51:49.831Z,12.98
2023-03-20T19:54:18.031Z,12.94
2023-03-20T19:56:46.109Z,12.88
2023-03-20T19:59:16.693Z,12.84
2023-03-20T20:01:46.074Z,12.80
2023-03-20T20:04:14.334Z,12.78
2023-03-20T20:06:42.422Z,12.75
2023-03-20T20:09:14.210Z,12.73
2023-03-20T20:11:42.480Z,12.72
2023-03-20T20:14:14.429Z,12.69
2023-03-20T20:16:43.685Z,12.64
2023-03-20T20:19:12.112Z,12.61
2023-03-20T20:24:30.009Z,12.61
2023-03-20T20:27:18.140Z,12.60
2023-03-20T20:29:49.091Z,12.61
2023-03-20T20:32:19.642Z,12.57
2023-03-20T20:40:28.571Z,12.41
2023-03-20T20:43:01.439Z,12.37
2023-03-20T20:45:31.851Z,12.32
2023-03-20T20:48:01.596Z,12.28
2023-03-20T20:50:32.236Z,12.26
2023-03-20T20:53:00.309Z,12.23
2023-03-20T20:55:28.725Z,12.21
2023-03-20T20:57:56.969Z,12.19
2023-03-20T21:00:41.066Z,12.15
2023-03-20T21:03:13.898Z,12.13
2023-03-20T21:05:43.442Z,12.11
2023-03-20T21:08:16.485Z,12.08
2023-03-20T21:10:46.172Z,12.06
2023-03-20T21:13:15.529Z,12.06
2023-03-20T21:15:45.913Z,12.06
2023-03-20T21:18:15.321Z,12.05
2023-03-20T21:20:45.449Z,12.06
2023-03-20T21:23:13.951Z,12.04
2023-03-20T21:25:46.375Z,12.03
2023-03-20T21:28:15.806Z,12.03
2023-03-20T21:31:12.689Z,12.01
2023-03-20T21:33:36.922Z,12.00
2023-03-20T21:36:06.118Z,11.97
2023-03-20T21:41:22.585Z,11.88
2023-03-20T21:43:50.711Z,11.86
2023-03-20T21:46:58.615Z,11.83
2023-03-20T21:49:58.420Z,11.81
2023-03-20T22:03:38.671Z,11.55
2023-03-20T22:12:23.126Z,11.46
2023-03-20T22:15:22.955Z,11.41
2023-03-20T22:26:51.383Z,11.30
2023-03-20T22:34:55.248Z,11.18
2023-03-20T22:43:04.762Z,11.13
2023-03-20T22:45:42.512Z,11.12
2023-03-20T22:48:15.584Z,11.10
2023-03-20T22:50:43.676Z,11.03
2023-03-20T22:53:11.849Z,11.00
2023-03-20T22:55:44.091Z,10.99
2023-03-20T22:58:13.685Z,10.96
2023-03-20T23:00:42.937Z,10.94
2023-03-20T23:03:25.520Z,10.93
2023-03-20T23:05:57.691Z,10.92
2023-03-20T23:08:25.514Z,10.91
2023-03-20T23:10:53.486Z,10.90
2023-03-20T23:13:22.550Z,10.88
2023-03-20T23:15:51.281Z,10.85
2023-03-20T23:18:19.265Z,10.82
2023-03-20T23:20:47.227Z,10.82
2023-03-20T23:23:15.527Z,10.81
2023-03-20T23:25:44.178Z,10.74
2023-03-20T23:28:12.306Z,10.71
2023-03-20T23:30:56.776Z,10.69
2023-03-20T23:33:28.266Z,10.63
2023-03-20T23:36:10.934Z,10.59
2023-03-20T23:38:43.008Z,10.58
2023-03-20T23:41:12.142Z,10.56
2023-03-20T23:43:40.640Z,10.55
2023-03-20T23:46:09.511Z,10.53
2023-03-20T23:48:39.434Z,10.52
2023-03-20T23:51:08.075Z,10.47
2023-03-20T23:53:36.255Z,10.43
2023-03-20T23:56:04.510Z,10.40
2023-03-20T23:58:32.362Z,10.36
